Time;durP1;ratioP1;P1;durP2;ratioP2;P2;SDS_P1;SDS_P2;PMS_P1;PMS_P2;Temp;Humidity;BMP_temperature;BMP_pressure;BME280_temperature;BME280_humidity;BME280_pressure;Samples;Min_cycle;Max_cycle;Signal;HPM_P1;HPM_P2
2022/04/09 00:01:04;;;;;;;3.95;2.47;;;;;;;13.91;49.77;99124.06;5113523;27;20027;-30
2022/04/09 00:03:30;;;;;;;7.70;2.80;;;;;;;13.98;49.73;99129.19;5131656;27;20041;-30
2022/04/09 00:05:55;;;;;;;5.20;2.28;;;;;;;13.77;50.00;99120.25;5131883;27;20029;-29
2022/04/09 00:08:21;;;;;;;6.60;2.70;;;;;;;13.59;50.26;99119.69;5131417;27;20019;-31
2022/04/09 00:10:46;;;;;;;6.20;2.60;;;;;;;13.74;50.13;99135.00;5131608;27;20050;-30
2022/04/09 00:13:12;;;;;;;4.60;2.30;;;;;;;13.82;49.51;99144.41;5113309;27;20715;-32
2022/04/09 00:15:37;;;;;;;5.82;2.55;;;;;;;13.48;50.89;99136.75;5131913;27;20114;-30
2022/04/09 00:18:03;;;;;;;6.10;2.30;;;;;;;13.93;49.29;99148.72;5131530;27;20027;-29
2022/04/09 00:20:29;;;;;;;5.38;2.78;;;;;;;13.65;50.24;99148.09;5131284;27;20029;-31
2022/04/09 00:22:54;;;;;;;6.47;2.50;;;;;;;13.70;50.05;99150.00;5131508;27;20031;-31
2022/04/09 00:25:24;;;;;;;5.13;2.10;;;;;;;13.61;50.45;99136.28;5130266;27;20035;-34
2022/04/09 00:27:53;;;;;;;3.55;2.33;;;;;;;13.69;50.27;99153.75;5131294;27;20023;-31
2022/04/09 00:30:19;;;;;;;5.43;2.35;;;;;;;13.90;49.64;99151.94;5131086;27;20113;-28
2022/04/09 00:32:45;;;;;;;3.92;2.25;;;;;;;13.60;50.52;99155.31;5112714;27;20062;-28
2022/04/09 00:35:11;;;;;;;5.95;2.40;;;;;;;13.64;50.01;99135.75;5112609;27;20139;-29
2022/04/09 00:37:47;;;;;;;6.93;2.17;;;;;;;13.22;51.67;99146.50;5131160;27;20399;-30
2022/04/09 00:40:14;;;;;;;6.07;2.35;;;;;;;13.19;51.76;99155.06;5130886;27;20031;-29
2022/04/09 00:42:43;;;;;;;7.47;2.58;;;;;;;13.34;51.69;99135.63;5112554;27;20785;-31
2022/04/09 00:45:12;;;;;;;7.72;2.63;;;;;;;13.34;52.04;99146.31;5112535;27;20418;-28
2022/04/09 00:47:38;;;;;;;6.45;2.53;;;;;;;12.99;52.03;99140.44;5112523;27;20027;-30
2022/04/09 00:50:06;;;;;;;4.63;2.50;;;;;;;13.04;51.66;99150.41;5130768;27;20035;-30
2022/04/09 00:52:38;;;;;;;5.20;2.75;;;;;;;13.16;51.95;99143.00;5131243;27;20023;-28
2022/04/09 00:55:05;;;;;;;6.10;2.45;;;;;;;13.06;51.63;99167.03;5130891;27;20047;-29
2022/04/09 00:57:35;;;;;;;7.00;3.33;;;;;;;12.58;52.64;99148.16;5112061;27;20034;-30
2022/04/09 01:00:11;;;;;;;8.32;2.40;;;;;;;12.68;52.29;99166.19;5112197;27;20087;-29
2022/04/09 01:02:40;;;;;;;5.75;3.03;;;;;;;12.67;52.66;99172.59;5111738;27;20023;-31
2022/04/09 01:05:06;;;;;;;5.03;2.95;;;;;;;12.54;53.05;99175.69;5112251;27;20127;-32
2022/04/09 01:07:32;;;;;;;7.32;2.88;;;;;;;12.48;53.26;99176.69;5112099;27;20054;-29
2022/04/09 01:09:58;;;;;;;6.88;3.30;;;;;;;12.33;53.28;99164.00;5112223;27;20038;-28
2022/04/09 01:12:24;;;;;;;7.90;3.25;;;;;;;12.33;53.11;99164.78;5128911;27;20031;-30
2022/04/09 01:14:50;;;;;;;7.15;2.92;;;;;;;12.31;53.44;99185.63;5130605;27;20038;-28
2022/04/09 01:17:15;;;;;;;5.07;3.03;;;;;;;12.31;53.49;99172.25;5130186;27;20027;-29
2022/04/09 01:19:41;;;;;;;6.00;2.95;;;;;;;12.27;53.37;99174.63;5130803;27;20410;-30
2022/04/09 01:22:06;;;;;;;7.60;3.35;;;;;;;12.37;53.44;99173.91;5112125;27;20104;-29
2022/04/09 01:24:32;;;;;;;10.18;3.58;;;;;;;11.72;55.78;99185.44;5130146;27;20033;-30
2022/04/09 01:26:58;;;;;;;9.35;3.80;;;;;;;11.16;58.36;99170.28;5111787;27;20410;-28
2022/04/09 01:29:23;;;;;;;7.30;2.92;;;;;;;10.91;58.25;99177.88;5130323;27;20038;-28
2022/04/09 01:31:49;;;;;;;6.20;3.65;;;;;;;11.38;56.53;99180.19;5130010;27;20554;-29
2022/04/09 01:34:14;;;;;;;5.68;3.17;;;;;;;11.21;57.84;99181.00;5130136;27;20088;-29
2022/04/09 01:36:40;;;;;;;6.65;3.33;;;;;;;11.10;58.18;99184.59;5129427;27;20061;-29
2022/04/09 01:39:05;;;;;;;6.40;3.33;;;;;;;10.76;58.62;99160.56;5130105;27;20767;-29
2022/04/09 01:41:31;;;;;;;8.18;3.92;;;;;;;10.66;59.46;99173.75;5130296;27;20095;-29
2022/04/09 01:43:56;;;;;;;5.85;3.50;;;;;;;10.89;58.31;99178.16;5129834;27;20035;-31
2022/04/09 01:46:22;;;;;;;6.90;4.00;;;;;;;11.09;58.01;99160.81;5129373;27;20027;-34
2022/04/09 01:48:48;;;;;;;7.40;3.72;;;;;;;11.21;57.58;99172.22;5129898;27;20353;-29
2022/04/09 01:51:13;;;;;;;7.53;3.35;;;;;;;11.37;56.84;99170.56;5129682;27;20027;-29
2022/04/09 01:53:39;;;;;;;6.68;3.63;;;;;;;11.57;55.60;99178.06;5129642;27;20788;-29
2022/04/09 01:56:04;;;;;;;7.82;3.80;;;;;;;11.38;56.68;99174.84;5129589;27;20038;-29
2022/04/09 01:58:31;;;;;;;6.65;3.42;;;;;;;10.88;58.38;99176.50;5129498;27;20498;-32
2022/04/09 02:00:59;;;;;;;6.28;3.50;;;;;;;10.95;58.05;99181.69;5129366;27;20046;-32
2022/04/09 02:03:25;;;;;;;6.00;2.90;;;;;;;11.10;57.33;99184.59;5129602;27;20108;-29
2022/04/09 02:05:51;;;;;;;5.82;3.47;;;;;;;10.83;58.36;99171.91;5111117;27;20032;-30
2022/04/09 02:08:17;;;;;;;6.50;3.33;;;;;;;11.02;58.11;99175.13;5110655;27;20653;-30
2022/04/09 02:10:42;;;;;;;6.88;3.63;;;;;;;10.98;57.10;99166.00;5110802;27;20084;-30
2022/04/09 02:13:12;;;;;;;7.55;3.40;;;;;;;10.96;57.53;99189.44;5129268;27;20034;-30
2022/04/09 02:15:38;;;;;;;6.03;3.42;;;;;;;10.94;57.53;99190.75;5129054;27;20034;-30
2022/04/09 02:18:03;;;;;;;6.93;3.78;;;;;;;10.13;60.25;99180.22;5129114;27;20031;-30
2022/04/09 02:20:28;;;;;;;5.88;3.20;;;;;;;10.58;59.04;99198.13;5129222;27;20031;-32
2022/04/09 02:22:55;;;;;;;7.97;3.67;;;;;;;10.45;58.88;99184.06;5110468;27;20041;-30
2022/04/09 02:25:21;;;;;;;6.03;3.60;;;;;;;9.86;60.92;99168.25;5110519;27;20069;-31
2022/04/09 02:27:46;;;;;;;6.82;3.47;;;;;;;9.58;61.81;99152.25;5128900;27;20047;-28
2022/04/09 02:30:13;;;;;;;10.13;4.28;;;;;;;9.63;62.19;99182.44;5128362;27;20034;-29
2022/04/09 02:33:04;;;;;;;10.32;3.78;;;;;;;9.56;62.21;99176.47;5128790;27;20065;-28
2022/04/09 02:35:30;;;;;;;13.60;4.18;;;;;;;9.54;62.32;99175.88;5125804;27;20505;-28
2022/04/09 02:37:57;;;;;;;6.95;3.78;;;;;;;9.71;61.45;99180.47;5128791;27;20027;-36
2022/04/09 02:40:22;;;;;;;17.38;3.97;;;;;;;9.76;61.24;99172.59;5128490;27;20028;-30
2022/04/09 02:42:48;;;;;;;7.90;3.67;;;;;;;9.81;60.42;99162.06;5128918;27;20031;-29
2022/04/09 02:45:14;;;;;;;7.88;3.55;;;;;;;9.67;61.33;99174.00;5110299;27;20088;-29
2022/04/09 02:47:40;;;;;;;8.55;3.90;;;;;;;9.40;62.41;99167.34;5129234;27;20058;-28
2022/04/09 02:50:06;;;;;;;8.50;3.80;;;;;;;9.48;61.72;99157.34;5109420;27;20050;-29
2022/04/09 02:52:38;;;;;;;6.90;3.65;;;;;;;9.73;60.73;99159.75;5128469;27;20019;-31
2022/04/09 02:55:05;;;;;;;6.63;3.60;;;;;;;9.83;60.87;99171.41;5128436;27;20437;-29
2022/04/09 02:57:32;;;;;;;7.65;3.70;;;;;;;9.49;62.37;99165.13;5110058;28;20031;-31
2022/04/09 02:59:57;;;;;;;6.97;4.15;;;;;;;9.32;63.05;99161.56;5109993;28;20041;-32
2022/04/09 03:02:23;;;;;;;10.52;4.45;;;;;;;9.64;61.64;99173.44;5128422;27;20114;-32
2022/04/09 03:04:49;;;;;;;7.10;4.13;;;;;;;9.95;60.79;99171.38;5128698;28;20062;-29
2022/04/09 03:07:15;;;;;;;8.88;4.22;;;;;;;9.96;60.43;99151.69;5128412;28;20402;-32
2022/04/09 03:09:40;;;;;;;9.13;4.30;;;;;;;10.37;58.71;99176.44;5109820;28;20038;-33
2022/04/09 03:12:06;;;;;;;11.00;5.80;;;;;;;10.25;59.15;99181.78;5128452;28;20026;-29
2022/04/09 03:14:31;;;;;;;9.57;5.30;;;;;;;10.17;59.84;99186.69;5109771;28;20031;-31
2022/04/09 03:16:57;;;;;;;9.30;5.43;;;;;;;10.05;59.32;99173.41;5109694;28;20026;-29
2022/04/09 03:19:22;;;;;;;7.28;4.70;;;;;;;9.96;59.15;99202.28;5128508;28;20559;-30
2022/04/09 03:21:48;;;;;;;8.23;5.03;;;;;;;9.97;58.90;99160.47;5128342;28;20937;-29
2022/04/09 03:24:13;;;;;;;8.60;4.85;;;;;;;10.04;59.04;99191.25;5127992;28;20038;-32
2022/04/09 03:26:39;;;;;;;12.32;4.78;;;;;;;9.97;59.05;99169.31;5109953;28;20087;-30
2022/04/09 03:29:04;;;;;;;8.57;4.90;;;;;;;10.10;58.80;99180.72;5109905;28;20035;-29
2022/04/09 03:31:30;;;;;;;13.13;6.00;;;;;;;10.00;59.28;99192.78;5128276;28;20020;-29
2022/04/09 03:33:56;;;;;;;8.45;4.35;;;;;;;10.04;59.05;99177.16;5109455;28;20039;-28
2022/04/09 03:36:22;;;;;;;9.30;4.60;;;;;;;9.79;60.18;99166.81;5109238;28;20047;-31
2022/04/09 03:38:47;;;;;;;8.75;4.55;;;;;;;9.93;59.00;99167.31;5127912;28;20097;-30
2022/04/09 03:41:13;;;;;;;7.95;4.40;;;;;;;9.93;59.96;99175.31;5127564;28;20092;-28
2022/04/09 03:43:38;;;;;;;8.02;4.10;;;;;;;9.87;59.25;99145.13;5126934;28;20031;-31
2022/04/09 03:46:05;;;;;;;10.07;4.68;;;;;;;9.95;59.74;99184.72;5126685;28;20043;-29
2022/04/09 03:48:30;;;;;;;8.38;4.25;;;;;;;9.95;59.52;99170.56;5128246;28;20030;-31
2022/04/09 03:50:56;;;;;;;8.98;4.57;;;;;;;9.95;60.01;99168.72;5127926;28;20031;-30
2022/04/09 03:53:21;;;;;;;7.85;4.30;;;;;;;9.71;61.01;99183.94;5128261;28;20546;-29
2022/04/09 03:55:48;;;;;;;8.73;4.75;;;;;;;9.37;62.26;99166.97;5127933;28;20471;-31
2022/04/09 03:58:19;;;;;;;13.52;4.85;;;;;;;9.58;61.82;99187.69;5109324;28;20114;-30
2022/04/09 04:00:45;;;;;;;10.50;7.13;;;;;;;9.47;62.86;99187.69;5129995;27;20049;-29
2022/04/09 04:03:11;;;;;;;14.65;9.10;;;;;;;9.59;61.72;99175.97;5113359;27;20126;-29
2022/04/09 04:05:37;;;;;;;15.40;7.38;;;;;;;9.79;60.96;99174.78;5131640;27;20023;-30
2022/04/09 04:08:06;;;;;;;23.88;8.90;;;;;;;9.55;62.65;99172.16;5131915;27;20383;-31
2022/04/09 04:10:35;;;;;;;18.80;7.45;;;;;;;9.64;62.37;99161.97;5113054;27;20023;-31
2022/04/09 04:13:01;;;;;;;30.05;16.33;;;;;;;9.84;62.38;99172.22;5113175;27;20073;-29
2022/04/09 04:15:27;;;;;;;17.52;7.90;;;;;;;9.83;61.61;99173.28;5131773;27;20446;-29
2022/04/09 04:17:52;;;;;;;9.88;5.70;;;;;;;9.32;63.87;99175.66;5131502;27;20027;-28
2022/04/09 04:20:17;;;;;;;16.55;8.15;;;;;;;9.36;63.05;99170.69;5131227;27;20031;-29
2022/04/09 04:22:43;;;;;;;13.95;6.80;;;;;;;10.04;60.73;99171.81;5112596;27;20027;-29
2022/04/09 04:25:09;;;;;;;18.38;10.80;;;;;;;10.53;59.60;99182.88;5131424;27;20102;-30
2022/04/09 04:27:41;;;;;;;13.50;7.63;;;;;;;10.41;60.79;99172.25;5112693;27;20031;-30
2022/04/09 04:30:08;;;;;;;16.23;7.13;;;;;;;9.84;63.24;99177.53;5112745;27;20029;-28
2022/04/09 04:32:33;;;;;;;13.88;7.25;;;;;;;10.02;61.61;99174.72;5112515;27;20065;-28
2022/04/09 04:34:59;;;;;;;16.10;7.00;;;;;;;10.12;62.10;99189.28;5130898;27;20086;-32
2022/04/09 04:37:24;;;;;;;10.50;6.22;;;;;;;9.68;63.04;99173.75;5112435;27;20065;-28
2022/04/09 04:39:50;;;;;;;12.82;6.32;;;;;;;9.76;62.80;99183.25;5131310;27;20035;-28
2022/04/09 04:42:15;;;;;;;10.43;6.18;;;;;;;9.76;62.73;99175.25;5131040;27;20023;-29
2022/04/09 04:44:41;;;;;;;11.65;5.80;;;;;;;9.91;61.32;99182.72;5131065;27;20152;-32
2022/04/09 04:47:06;;;;;;;8.70;5.45;;;;;;;9.75;62.76;99192.28;5131052;27;20094;-29
2022/04/09 04:49:32;;;;;;;11.10;5.93;;;;;;;10.13;61.22;99172.25;5112511;27;20023;-33
2022/04/09 04:51:57;;;;;;;12.73;6.88;;;;;;;10.52;59.98;99181.25;5130665;27;20023;-29
2022/04/09 04:54:22;;;;;;;15.35;6.53;;;;;;;10.62;59.70;99172.59;5130661;27;20115;-29
2022/04/09 04:56:48;;;;;;;16.98;7.25;;;;;;;10.93;59.07;99157.09;5130912;27;20038;-29
2022/04/09 04:59:15;;;;;;;18.10;6.82;;;;;;;11.27;58.76;99169.34;5130776;27;20027;-28
2022/04/09 05:01:41;;;;;;;15.38;7.65;;;;;;;11.02;59.79;99155.66;5112104;27;20023;-29
2022/04/09 05:04:07;;;;;;;14.05;7.03;;;;;;;10.71;61.93;99181.84;5112101;27;20039;-32
2022/04/09 05:06:32;;;;;;;16.88;7.25;;;;;;;10.68;61.41;99189.50;5111311;27;20035;-29
2022/04/09 05:08:58;;;;;;;17.33;6.55;;;;;;;10.68;61.11;99181.50;5130941;27;20020;-31
2022/04/09 05:11:24;;;;;;;16.23;6.63;;;;;;;10.88;61.45;99186.38;5129992;27;20062;-31
2022/04/09 05:13:49;;;;;;;16.33;7.03;;;;;;;10.96;59.20;99162.78;5130207;27;20495;-31
2022/04/09 05:16:15;;;;;;;16.08;9.25;;;;;;;11.33;58.50;99182.78;5130136;27;20098;-32
2022/04/09 05:18:41;;;;;;;15.40;8.18;;;;;;;11.39;58.67;99160.44;5111802;27;20038;-33
2022/04/09 05:21:06;;;;;;;29.63;14.98;;;;;;;11.69;57.87;99168.06;5111605;27;20551;-32
2022/04/09 05:23:32;;;;;;;17.48;8.70;;;;;;;11.63;57.22;99167.19;5130150;27;20043;-30
2022/04/09 05:25:58;;;;;;;19.40;9.30;;;;;;;11.80;57.03;99174.34;5130622;27;20503;-29
2022/04/09 05:28:23;;;;;;;13.98;8.40;;;;;;;11.86;56.65;99186.69;5129849;27;20023;-29
2022/04/09 05:30:50;;;;;;;19.02;7.82;;;;;;;11.62;57.96;99167.41;5130029;27;20023;-28
2022/04/09 05:33:17;;;;;;;15.00;8.45;;;;;;;11.65;57.15;99167.75;5111323;27;20164;-29
2022/04/09 05:35:43;;;;;;;14.98;8.20;;;;;;;11.82;58.09;99180.22;5129798;27;20055;-35
2022/04/09 05:38:09;;;;;;;12.45;8.38;;;;;;;11.57;58.39;99162.84;5111365;27;20031;-35
2022/04/09 05:40:36;;;;;;;15.23;7.80;;;;;;;11.81;58.02;99162.56;5111547;27;20123;-29
2022/04/09 05:43:02;;;;;;;12.25;6.68;;;;;;;11.75;58.86;99156.38;5111498;27;20059;-28
2022/04/09 05:45:27;;;;;;;11.20;6.05;;;;;;;11.76;58.15;99165.19;5129833;27;20062;-29
2022/04/09 05:47:53;;;;;;;11.10;6.18;;;;;;;12.22;56.98;99155.06;5129633;27;20027;-31
2022/04/09 05:50:18;;;;;;;11.50;6.38;;;;;;;12.33;57.39;99158.66;5129532;27;20600;-29
2022/04/09 05:52:44;;;;;;;13.35;6.53;;;;;;;12.19;56.81;99148.34;5129679;27;20075;-33
2022/04/09 05:55:10;;;;;;;11.65;5.68;;;;;;;12.11;57.61;99158.69;5111018;27;20035;-28
2022/04/09 05:57:36;;;;;;;12.23;6.38;;;;;;;12.22;57.36;99168.44;5129714;27;20044;-28
2022/04/09 06:00:04;;;;;;;14.70;7.30;;;;;;;12.23;58.74;99143.31;5111154;27;20023;-28
2022/04/09 06:02:29;;;;;;;14.75;7.32;;;;;;;12.29;57.67;99163.69;5127778;27;20159;-29
2022/04/09 06:04:55;;;;;;;13.85;5.95;;;;;;;12.27;57.81;99155.09;5129903;27;20035;-29
2022/04/09 06:07:22;;;;;;;9.77;5.53;;;;;;;12.37;56.92;99157.88;5129530;27;20076;-30
2022/04/09 06:09:49;;;;;;;12.43;5.70;;;;;;;12.49;57.37;99146.22;5111023;27;20479;-29
2022/04/09 06:12:14;;;;;;;11.23;5.50;;;;;;;12.52;56.74;99127.78;5110586;27;20490;-32
2022/04/09 06:14:40;;;;;;;15.13;8.05;;;;;;;12.74;55.73;99138.41;5129425;27;20287;-28
2022/04/09 06:17:06;;;;;;;11.27;6.07;;;;;;;12.76;56.15;99130.94;5129184;27;20462;-28
2022/04/09 06:19:31;;;;;;;16.70;6.18;;;;;;;12.89;56.66;99128.88;5129022;27;20368;-28
2022/04/09 06:21:57;;;;;;;10.55;5.20;;;;;;;13.01;56.53;99116.13;5110613;27;20036;-31
2022/04/09 06:24:23;;;;;;;11.05;5.28;;;;;;;13.42;56.56;99132.44;5129222;27;20756;-28
2022/04/09 06:26:48;;;;;;;8.50;4.75;;;;;;;13.58;56.31;99144.03;5110509;27;20035;-29
2022/04/09 06:29:14;;;;;;;9.57;4.88;;;;;;;13.84;55.56;99150.31;5128869;27;20027;-28
2022/04/09 06:31:39;;;;;;;10.38;4.93;;;;;;;13.60;57.95;99152.63;5128679;27;20024;-28
2022/04/09 06:34:05;;;;;;;8.30;4.90;;;;;;;13.61;57.67;99162.28;5128487;27;20031;-29
2022/04/09 06:36:30;;;;;;;11.00;6.25;;;;;;;13.58;57.91;99166.28;5128693;27;20116;-31
2022/04/09 06:38:56;;;;;;;7.22;4.25;;;;;;;13.36;56.91;99157.59;5128641;27;20038;-30
2022/04/09 06:41:21;;;;;;;9.43;5.10;;;;;;;13.57;58.51;99139.78;5128771;27;20410;-33
2022/04/09 06:43:48;;;;;;;9.88;5.60;;;;;;;13.77;57.46;99155.09;5128675;27;20027;-29
2022/04/09 06:46:15;;;;;;;15.52;6.28;;;;;;;13.59;56.57;99151.03;5109370;27;20099;-30
2022/04/09 06:48:40;;;;;;;8.93;4.30;;;;;;;13.94;56.50;99145.00;5110161;27;20749;-29
2022/04/09 06:51:06;;;;;;;9.02;4.78;;;;;;;13.94;56.49;99141.50;5128480;27;20023;-28
2022/04/09 06:53:31;;;;;;;11.20;4.00;;;;;;;14.22;53.96;99150.94;5128535;27;20042;-30
2022/04/09 06:55:57;;;;;;;6.40;3.72;;;;;;;14.32;52.55;99139.44;5128424;27;20058;-29
2022/04/09 06:58:22;;;;;;;8.88;3.83;;;;;;;14.75;51.75;99138.16;5128319;27;20432;-29
2022/04/09 07:00:48;;;;;;;9.43;4.10;;;;;;;14.70;52.80;99130.09;5128287;27;20030;-29
2022/04/09 07:03:14;;;;;;;7.45;3.83;;;;;;;15.11;51.48;99150.75;5128180;28;20031;-35
2022/04/09 07:05:43;;;;;;;10.73;5.85;;;;;;;15.64;51.64;99138.50;5128355;28;20046;-29
2022/04/09 07:08:09;;;;;;;11.35;5.78;;;;;;;16.03;50.44;99155.84;5109666;28;20432;-31
2022/04/09 07:10:38;;;;;;;9.18;3.80;;;;;;;16.65;48.33;99150.84;5110032;28;20518;-29
2022/04/09 07:13:05;;;;;;;8.32;4.05;;;;;;;16.58;47.86;99126.16;5126605;28;20038;-29
2022/04/09 07:15:31;;;;;;;6.90;3.42;;;;;;;16.39;48.53;99129.53;5109536;28;20174;-35
2022/04/09 07:17:57;;;;;;;7.72;3.35;;;;;;;16.79;47.92;99145.63;5128212;28;20039;-35
2022/04/09 07:20:22;;;;;;;7.18;3.55;;;;;;;16.67;48.75;99154.91;5127888;28;20019;-28
2022/04/09 07:22:48;;;;;;;5.63;2.83;;;;;;;17.06;48.12;99145.97;5109495;28;20019;-29
2022/04/09 07:25:16;;;;;;;6.70;2.83;;;;;;;17.47;47.89;99123.97;5128507;28;20110;-31
2022/04/09 07:27:47;;;;;;;7.35;2.90;;;;;;;17.66;46.21;99142.09;5128225;28;20019;-29
2022/04/09 07:30:24;;;;;;;9.00;4.13;;;;;;;17.91;46.43;99145.59;5109403;28;20027;-31
2022/04/09 07:32:49;;;;;;;7.20;3.00;;;;;;;18.18;45.53;99131.44;5127726;28;20482;-29
2022/04/09 07:35:15;;;;;;;8.63;2.85;;;;;;;18.32;44.65;99143.13;5128999;27;20111;-30
2022/04/09 07:37:54;;;;;;;10.88;3.05;;;;;;;18.69;43.50;99130.66;5132158;27;20030;-31
2022/04/09 07:40:20;;;;;;;7.50;2.40;;;;;;;18.86;43.07;99128.25;5131957;27;20031;-30
2022/04/09 07:42:46;;;;;;;5.90;2.30;;;;;;;19.09;44.82;99123.00;5113284;27;20055;-29
2022/04/09 07:45:13;;;;;;;14.88;7.15;;;;;;;19.17;43.36;99108.00;5113592;27;20073;-32
2022/04/09 07:47:39;;;;;;;15.43;6.45;;;;;;;19.21;44.05;99120.59;5113418;27;20027;-29
2022/04/09 07:50:10;;;;;;;6.47;3.00;;;;;;;19.32;42.31;99115.81;5113367;27;20842;-29
2022/04/09 07:52:38;;;;;;;8.23;2.53;;;;;;;19.73;41.57;99135.84;5131630;27;20403;-34
2022/04/09 07:55:07;;;;;;;6.90;2.70;;;;;;;19.86;40.96;99121.53;5131239;27;20027;-30
2022/04/09 07:57:33;;;;;;;6.90;2.40;;;;;;;19.91;42.09;99113.28;5113328;27;20031;-33
2022/04/09 07:59:58;;;;;;;4.07;2.30;;;;;;;20.14;38.98;99118.72;5131571;27;20080;-30
2022/04/09 08:02:25;;;;;;;5.35;3.00;;;;;;;20.25;42.12;99125.53;5131438;27;20031;-31
2022/04/09 08:04:51;;;;;;;6.53;2.47;;;;;;;20.19;40.90;99110.50;5111807;27;20076;-30
2022/04/09 08:07:17;;;;;;;4.25;2.30;;;;;;;20.43;40.97;99121.03;5131881;27;20046;-29
2022/04/09 08:09:44;;;;;;;5.75;2.55;;;;;;;20.61;40.61;99111.16;5112650;27;20410;-28
2022/04/09 08:12:14;;;;;;;9.07;2.50;;;;;;;20.87;39.31;99103.97;5131352;27;20142;-29
2022/04/09 08:14:40;;;;;;;8.18;2.10;;;;;;;21.02;38.39;99100.09;5131498;27;20809;-33
2022/04/09 08:17:05;;;;;;;4.40;1.98;;;;;;;21.34;38.87;99095.41;5112996;27;20122;-33
2022/04/09 08:19:30;;;;;;;5.15;2.65;;;;;;;21.31;37.84;99089.81;5113159;27;20035;-32
2022/04/09 08:21:57;;;;;;;7.32;2.60;;;;;;;21.40;36.71;99090.66;5131179;27;20023;-32
2022/04/09 08:24:23;;;;;;;5.90;2.10;;;;;;;21.44;36.13;99094.38;5130969;27;20087;-29
2022/04/09 08:26:48;;;;;;;4.18;2.20;;;;;;;21.86;35.07;99083.91;5112811;27;20019;-29
2022/04/09 08:29:19;;;;;;;8.70;2.65;;;;;;;22.13;34.50;99082.81;5131474;27;20020;-33
2022/04/09 08:31:47;;;;;;;5.55;1.92;;;;;;;22.17;34.96;99077.53;5131185;27;20034;-34
2022/04/09 08:34:12;;;;;;;;;;;;;;;22.50;34.17;99096.09;5112856;27;20125;-32
2022/04/09 08:36:38;;;;;;;4.13;2.03;;;;;;;22.66;33.77;99094.47;5131042;27;20002;-30
2022/04/09 08:39:03;;;;;;;4.38;1.90;;;;;;;22.37;33.37;99076.91;5130722;27;20053;-29
2022/04/09 08:41:29;;;;;;;6.05;2.25;;;;;;;22.37;35.13;99076.91;5131011;27;20044;-31
2022/04/09 08:43:54;;;;;;;4.30;2.10;;;;;;;22.74;34.69;99085.47;5130899;27;20418;-32
2022/04/09 08:46:21;;;;;;;6.15;2.17;;;;;;;22.83;33.03;99067.22;5129808;27;20419;-31
2022/04/09 08:48:49;;;;;;;5.25;2.08;;;;;;;22.79;34.65;99076.34;5111789;27;20051;-31
2022/04/09 08:51:15;;;;;;;5.68;2.10;;;;;;;22.95;33.68;99068.47;5130718;27;20030;-31
2022/04/09 08:53:41;;;;;;;5.53;1.90;;;;;;;23.31;34.76;99075.38;5130484;27;20023;-29
2022/04/09 08:56:07;;;;;;;3.22;1.88;;;;;;;23.50;32.42;99073.03;5112174;27;20095;-34
2022/04/09 08:58:33;;;;;;;4.05;2.05;;;;;;;23.52;32.60;99059.06;5130696;27;20023;-30
2022/04/09 09:00:58;;;;;;;4.75;2.47;;;;;;;23.72;32.31;99068.41;5130690;27;20039;-29
2022/04/09 09:03:24;;;;;;;4.25;1.77;;;;;;;23.98;32.29;99065.53;5130607;27;20460;-30
2022/04/09 09:05:52;;;;;;;5.38;2.33;;;;;;;24.40;30.38;99049.91;5130645;27;20471;-34
2022/04/09 09:08:35;;;;;;;3.67;1.75;;;;;;;24.62;31.43;99062.41;5111566;27;20027;-29
2022/04/09 09:11:00;;;;;;;4.47;1.98;;;;;;;24.46;31.80;99059.47;5111944;27;20523;-30
2022/04/09 09:13:26;;;;;;;3.47;1.75;;;;;;;24.26;31.10;99049.41;5130373;27;20021;-29
2022/04/09 09:15:53;;;;;;;7.90;2.22;;;;;;;24.72;31.53;99055.69;5130094;27;20147;-29
2022/04/09 09:18:24;;;;;;;5.45;1.75;;;;;;;24.59;30.46;99051.38;5111541;27;20024;-35
2022/04/09 09:20:53;;;;;;;4.63;2.10;;;;;;;25.03;29.05;99052.47;5130205;27;20127;-31
2022/04/09 09:23:24;;;;;;;5.85;2.30;;;;;;;24.73;28.34;99023.78;5111730;27;20091;-29
2022/04/09 09:25:50;;;;;;;4.25;1.88;;;;;;;24.81;28.83;99040.03;5128654;27;20525;-30
2022/04/09 09:28:53;;;;;;;4.28;1.70;;;;;;;25.18;28.82;99033.81;5111102;27;20033;-29
2022/04/09 09:31:18;;;;;;;4.82;2.40;;;;;;;25.48;29.32;99030.84;5101108;27;20113;-30
2022/04/09 09:33:48;;;;;;;5.43;1.92;;;;;;;25.34;28.08;99014.84;5129871;27;20056;-33
2022/04/09 09:36:14;;;;;;;5.60;2.30;;;;;;;25.34;28.74;99025.78;5129344;27;20207;-29
2022/04/09 09:38:40;;;;;;;7.47;2.28;;;;;;;25.58;28.19;99025.72;5129796;27;20772;-29
2022/04/09 09:41:22;;;;;;;7.93;2.42;;;;;;;25.73;27.91;99015.22;5110891;27;20035;-30
2022/04/09 09:44:03;;;;;;;6.43;2.63;;;;;;;25.98;27.53;99000.34;5111006;27;20026;-35
2022/04/09 09:46:29;;;;;;;8.18;2.47;;;;;;;26.55;26.86;98994.84;5124727;27;20448;-38
2022/04/09 09:48:55;;;;;;;4.45;1.63;;;;;;;26.76;26.39;99005.53;5126960;27;20027;-34
2022/04/09 09:51:23;;;;;;;6.50;2.30;;;;;;;26.45;27.18;98990.66;5129121;27;20027;-35
2022/04/09 09:53:48;;;;;;;7.32;3.10;;;;;;;26.32;28.43;98987.22;5128877;27;20058;-31
2022/04/09 09:56:33;;;;;;;16.15;5.88;;;;;;;26.75;27.77;98984.81;5128744;27;20543;-30
2022/04/09 09:59:00;;;;;;;4.07;1.80;;;;;;;26.34;28.90;98974.00;5110436;27;20521;-32
2022/04/09 10:01:26;;;;;;;7.43;2.42;;;;;;;26.45;27.36;98961.38;5110602;27;20046;-32
2022/04/09 10:03:53;;;;;;;7.38;2.47;;;;;;;26.77;27.72;98953.22;5129079;27;20038;-31
2022/04/09 10:06:21;;;;;;;5.35;1.80;;;;;;;27.34;28.49;98952.94;5110086;27;20110;-31
2022/04/09 10:08:47;;;;;;;4.45;1.73;;;;;;;27.80;27.63;98966.81;5110371;27;20493;-33
2022/04/09 10:11:16;;;;;;;5.43;2.00;;;;;;;27.51;26.28;98949.81;5110359;27;20019;-29
2022/04/09 10:13:43;;;;;;;5.90;2.10;;;;;;;27.96;25.60;98962.06;5128819;27;20035;-30
2022/04/09 10:16:10;;;;;;;;;;;;;;;28.17;25.69;98960.88;5110415;27;20127;-35
2022/04/09 10:18:36;;;;;;;5.15;1.92;;;;;;;28.12;26.09;98956.50;5110109;27;19926;-36
2022/04/09 10:21:02;;;;;;;6.45;2.20;;;;;;;28.07;26.86;98956.78;5128268;27;20027;-31
2022/04/09 10:23:32;;;;;;;4.85;1.95;;;;;;;28.11;26.72;98946.66;5110338;27;20035;-32
2022/04/09 10:26:00;;;;;;;3.25;1.77;;;;;;;27.96;27.63;98929.19;5128589;27;20035;-32
2022/04/09 10:28:36;;;;;;;5.03;2.00;;;;;;;27.52;27.06;98936.91;5109887;27;20092;-29
2022/04/09 10:31:03;;;;;;;3.38;1.67;;;;;;;27.29;26.02;98923.13;5128426;27;20024;-29
2022/04/09 10:33:33;;;;;;;4.90;1.70;;;;;;;27.23;27.07;98942.56;5109640;27;20478;-37
2022/04/09 10:36:02;;;;;;;4.07;2.30;;;;;;;27.12;27.92;98930.56;5128391;27;20051;-32
2022/04/09 10:38:28;;;;;;;5.75;1.75;;;;;;;27.15;26.67;98923.56;5128090;27;20015;-30
2022/04/09 10:40:55;;;;;;;5.72;2.88;;;;;;;27.09;27.21;98920.31;5109768;27;20031;-30
2022/04/09 10:43:23;;;;;;;22.90;18.13;;;;;;;27.38;28.15;98918.22;5109626;27;20122;-30
2022/04/09 10:46:17;;;;;;;6.97;3.03;;;;;;;26.89;27.31;98910.47;5128280;27;20264;-32
2022/04/09 10:48:44;;;;;;;6.10;2.17;;;;;;;26.98;27.19;98903.69;5103642;27;20035;-31
2022/04/09 10:51:14;;;;;;;6.00;2.03;;;;;;;27.68;25.71;98925.88;5128246;27;20035;-31
2022/04/09 10:53:44;;;;;;;4.03;1.70;;;;;;;27.49;24.94;98891.88;5128204;27;20027;-31
2022/04/09 10:56:20;;;;;;;3.17;1.90;;;;;;;28.01;26.50;98908.91;5109538;27;20027;-30
2022/04/09 10:59:13;;;;;;;3.97;1.83;;;;;;;28.68;26.59;98904.97;5109906;27;20042;-31
2022/04/09 11:01:51;;;;;;;4.30;1.70;;;;;;;29.10;24.33;98891.06;5109512;28;20042;-30
2022/04/09 11:04:25;;;;;;;6.93;1.98;;;;;;;29.48;24.63;98883.69;5109446;27;20031;-31
2022/04/09 11:07:09;;;;;;;3.88;1.52;;;;;;;29.55;24.18;98883.78;5127841;28;20064;-31
2022/04/09 11:09:41;;;;;;;2.92;1.55;;;;;;;29.53;23.51;98886.13;5109058;28;20028;-31
2022/04/09 11:12:06;;;;;;;3.28;1.85;;;;;;;29.67;23.67;98868.19;5128051;28;20053;-30
2022/04/09 11:14:49;;;;;;;3.80;1.50;;;;;;;28.96;23.58;98880.69;5127732;28;20470;-34
2022/04/09 11:17:29;;;;;;;3.40;1.58;;;;;;;29.14;23.02;98875.47;5109288;28;20027;-30
2022/04/09 11:20:06;;;;;;;7.93;2.00;;;;;;;29.40;24.24;98871.03;5127832;28;20027;-34
2022/04/09 11:22:56;;;;;;;5.03;1.70;;;;;;;29.82;22.56;98864.47;5127880;28;20037;-31
2022/04/09 11:25:27;;;;;;;4.72;1.85;;;;;;;29.24;23.02;98876.75;5119724;28;20040;-31
2022/04/09 11:28:04;;;;;;;3.58;1.60;;;;;;;29.61;22.83;98865.81;5109360;28;20091;-29
2022/04/09 11:30:30;;;;;;;3.25;1.52;;;;;;;29.67;21.11;98863.53;5108995;28;20032;-30
2022/04/09 11:32:56;;;;;;;6.60;1.35;;;;;;;29.50;21.54;98858.59;5108955;28;20080;-38